Time;durP1;ratioP1;P1;durP2;ratioP2;P2;SDS_P1;SDS_P2;PMS_P1;PMS_P2;Temp;Humidity;BMP_temperature;BMP_pressure;BME280_temperature;BME280_humidity;BME280_pressure;Samples;Min_cycle;Max_cycle;Signal;HPM_P1;HPM_P2
2022/01/24 00:00:13;;;;;;;;;;;;;;;-3.04;100.00;101051.38;5013226;28;19918;-66
2022/01/24 00:02:39;;;;;;;;;;;;;;;-3.09;100.00;101047.88;5012275;28;19917;-66
2022/01/24 00:05:05;;;;;;;;;;;;;;;-2.70;100.00;101049.56;5012492;28;20386;-66
2022/01/24 00:07:31;;;;;;;;;;;;;;;-2.90;100.00;101063.66;5013975;28;19914;-68
2022/01/24 00:10:00;;;;;;;;;;;;;;;-2.65;100.00;101061.41;5013980;28;19913;-66
2022/01/24 00:17:40;;;;;;;;;;;;;;;-2.66;100.00;101061.34;5013568;28;19956;-67
2022/01/24 00:28:19;;;;;;;;;;;;;;;-2.77;100.00;101065.00;5013131;28;19936;-66
2022/01/24 00:30:45;;;;;;;;;;;;;;;-2.74;100.00;101068.50;5013454;28;20267;-67
2022/01/24 00:33:10;;;;;;;;;;;;;;;-2.53;100.00;101060.19;5013247;28;19915;-66
2022/01/24 00:35:35;;;;;;;;;;;;;;;-2.48;100.00;101062.13;5013283;28;19975;-66
2022/01/24 00:38:02;;;;;;;;;;;;;;;-2.29;100.00;101067.03;5013237;28;20383;-67
2022/01/24 00:40:28;;;;;;;;;;;;;;;-2.50;100.00;101067.81;5013307;28;19913;-65
2022/01/24 00:42:57;;;;;;;;;;;;;;;-2.32;100.00;101061.97;5013140;28;19914;-66
2022/01/24 00:55:44;;;;;;;;;;;;;;;-2.21;100.00;101078.16;5013080;28;19910;-67
2022/01/24 00:58:09;;;;;;;;;;;;;;;-2.38;100.00;101081.63;5012916;28;19920;-66
2022/01/24 01:03:10;;;;;;;;;;;;;;;-2.25;100.00;101078.84;4136709;23;10000664;-67
2022/01/24 01:18:44;;;;;;;;;;;;;;;-2.32;100.00;101101.78;5012539;28;19920;-68
2022/01/24 01:21:11;;;;;;;;;;;;;;;-2.39;100.00;101118.88;5011969;28;19917;-69
2022/01/24 01:23:41;;;;;;;;;;;;;;;-2.48;100.00;101120.97;5012443;28;19924;-68
2022/01/24 01:29:14;;;;;;;;;;;;;;;-2.22;100.00;101125.41;4990316;28;19956;-68
2022/01/24 01:31:50;;;;;;;;;;;;;;;-2.38;100.00;101123.06;5008363;28;19917;-68
2022/01/24 01:34:51;;;;;;;;;;;;;;;-2.27;100.00;101116.88;5010623;28;19999;-68
2022/01/24 01:56:05;;;;;;;;;;;;;;;-2.72;100.00;101108.34;5011811;28;19981;-68
2022/01/24 01:58:31;;;;;;;;;;;;;;;-2.36;100.00;101107.44;5011690;28;19917;-68
2022/01/24 02:00:58;;;;;;;;;;;;;;;-2.57;100.00;101106.50;5011649;28;19917;-69
2022/01/24 02:03:25;;;;;;;;;;;;;;;-2.45;100.00;101108.66;5011250;28;19929;-69
2022/01/24 02:05:50;;;;;;;;;;;;;;;-2.66;100.00;101106.13;5009867;28;19921;-68
2022/01/24 02:08:17;;;;;;;;;;;;;;;-2.49;100.00;101105.19;5011414;28;19914;-68
2022/01/24 02:10:43;;;;;;;;;;;;;;;-2.56;100.00;101109.84;5011577;28;19913;-68
2022/01/24 02:13:10;;;;;;;;;;;;;;;-2.44;100.00;101117.84;5011461;28;19913;-68
2022/01/24 02:25:57;;;;;;;;;;;;;;;-2.50;100.00;101115.09;5011131;28;19924;-68
2022/01/24 02:28:25;;;;;;;;;;;;;;;-2.65;100.00;101113.66;5011521;28;20390;-67
2022/01/24 02:33:17;;;;;;;;;;;;;;;-2.70;100.00;101111.75;5011451;28;19928;-67
2022/01/24 02:35:43;;;;;;;;;;;;;;;-2.62;100.00;101115.41;5009204;28;19921;-67
2022/01/24 02:38:30;;;;;;;;;;;;;;;-2.75;100.00;101125.59;5010955;28;19913;-66
2022/01/24 02:49:08;;;;;;;;;;;;;;;-2.79;100.00;101151.13;5014877;28;19921;-66
2022/01/24 02:54:06;;;;;;;;;;;;;;;-2.85;100.00;101164.16;5015234;28;19914;-66
2022/01/24 02:56:31;;;;;;;;;;;;;;;-2.79;100.00;101158.59;5014225;28;19972;-67
2022/01/24 02:58:56;;;;;;;;;;;;;;;-2.67;100.00;101164.97;5015009;28;19921;-67
2022/01/24 03:01:22;;;;;;;;;;;;;;;-2.78;100.00;101170.25;5015175;28;19941;-67
2022/01/24 03:03:47;;;;;;;;;;;;;;;-2.51;100.00;101180.56;5014511;28;19975;-67
2022/01/24 03:06:12;;;;;;;;;;;;;;;-2.31;100.00;101178.16;5013567;28;19913;-67
2022/01/24 03:08:40;;;;;;;;;;;;;;;-2.66;100.00;101181.63;5013672;28;19913;-67
2022/01/24 03:11:05;;;;;;;;;;;;;;;-2.74;100.00;101177.09;5014416;28;19920;-67
2022/01/24 03:13:32;;;;;;;;;;;;;;;-2.59;100.00;101190.19;5014818;28;19914;-66
2022/01/24 03:15:59;;;;;;;;;;;;;;;-2.81;100.00;101188.38;5014808;28;19913;-67
2022/01/24 03:18:25;;;;;;;;;;;;;;;-2.86;100.00;101186.47;5014552;28;19928;-68
2022/01/24 03:20:50;;;;;;;;;;;;;;;-2.53;100.00;101189.59;5013335;28;19914;-67
2022/01/24 03:23:20;;;;;;;;;;;;;;;-2.88;100.00;101188.91;5014523;28;19921;-68
2022/01/24 03:25:45;;;;;;;;;;;;;;;-2.95;100.00;101191.06;5014390;28;19913;-68
2022/01/24 03:28:11;;;;;;;;;;;;;;;-2.97;100.00;101205.88;5014486;28;20367;-68
2022/01/24 03:30:37;;;;;;;;;;;;;;;-2.83;100.00;101202.38;5012867;28;19964;-68
2022/01/24 03:33:02;;;;;;;;;;;;;;;-3.31;100.00;101209.25;5012980;28;19913;-68
2022/01/24 03:35:28;;;;;;;;;;;;;;;-2.99;100.00;101207.44;5014566;28;20012;-68
2022/01/24 03:37:53;;;;;;;;;;;;;;;-3.09;100.00;101224.38;5014448;28;19968;-67
2022/01/24 03:40:19;;;;;;;;;;;;;;;-2.85;100.00;101223.00;5013541;28;19932;-68
2022/01/24 03:42:44;;;;;;;;;;;;;;;-3.30;100.00;101225.84;5012831;28;19914;-68
2022/01/24 03:45:11;;;;;;;;;;;;;;;-3.22;100.00;101232.88;5013793;28;19909;-67
2022/01/24 03:50:06;;;;;;;;;;;;;;;-3.31;100.00;101239.94;5014100;28;19918;-68
2022/01/24 03:52:31;;;;;;;;;;;;;;;-3.34;100.00;101239.75;5013816;28;19967;-67
2022/01/24 03:54:57;;;;;;;;;;;;;;;-3.32;100.00;101243.16;5013686;28;20055;-67
2022/01/24 03:57:23;;;;;;;;;;;;;;;-3.36;100.00;101252.88;5013389;28;20011;-66
2022/01/24 03:59:49;;;;;;;;;;;;;;;-3.15;100.00;101242.31;5013594;28;19989;-66
2022/01/24 04:02:14;;;;;;;;;;;;;;;-3.13;100.00;101252.38;5012263;28;19917;-66
2022/01/24 04:04:40;;;;;;;;;;;;;;;-3.01;100.00;101252.94;5013740;28;19972;-67
2022/01/24 04:07:05;;;;;;;;;;;;;;;-3.15;100.00;101256.41;5013539;28;19919;-66
2022/01/24 04:09:31;;;;;;;;;;;;;;;-2.98;100.00;101256.41;5012069;28;19917;-67
2022/01/24 04:11:58;;;;;;;;;;;;;;;-2.99;100.00;101266.28;5013667;28;19913;-66
2022/01/24 04:17:20;;;;;;;;;;;;;;;-2.96;100.00;101268.91;5013416;28;20009;-66
2022/01/24 04:22:37;;;;;;;;;;;;;;;-2.92;100.00;101268.28;5003206;28;19920;-66
2022/01/24 04:25:03;;;;;;;;;;;;;;;-2.94;100.00;101268.22;5013298;28;19971;-67
2022/01/24 04:27:28;;;;;;;;;;;;;;;-2.91;100.00;101273.31;5013478;28;19921;-67
2022/01/24 04:29:54;;;;;;;;;;;;;;;-2.96;100.00;101281.34;5013162;28;20362;-66
2022/01/24 04:32:20;;;;;;;;;;;;;;;-3.01;100.00;101283.59;5028322;28;20020;-67
2022/01/24 04:34:45;;;;;;;;;;;;;;;-2.89;100.00;101280.84;5013212;28;20383;-66
2022/01/24 04:37:10;;;;;;;;;;;;;;;-2.88;100.00;101287.53;5013263;28;19969;-67
2022/01/24 04:39:36;;;;;;;;;;;;;;;-2.90;100.00;101284.97;5011532;28;19967;-68
2022/01/24 04:42:09;;;;;;;;;;;;;;;-2.80;100.00;101291.22;5028495;28;19913;-67
2022/01/24 04:47:48;;;;;;;;;;;;;;;-2.90;100.00;101294.94;5012977;28;19965;-67
2022/01/24 04:52:54;;;;;;;;;;;;;;;-3.02;100.00;101303.44;5013134;28;19971;-63
2022/01/24 04:55:19;;;;;;;;;;;;;;;-2.89;100.00;101303.22;5027951;28;19924;-64
2022/01/24 04:57:46;;;;;;;;;;;;;;;-2.85;100.00;101310.03;5012955;28;19913;-64
2022/01/24 05:00:12;;;;;;;;;;;;;;;-2.84;100.00;101306.78;5012445;28;20011;-64
2022/01/24 05:02:37;;;;;;;;;;;;;;;-2.79;100.00;101307.84;4999240;28;20013;-64
2022/01/24 05:05:02;;;;;;;;;;;;;;;-2.71;100.00;101312.41;4992978;28;20273;-66
2022/01/24 05:07:28;;;;;;;;;;;;;;;-2.76;100.00;101312.97;4992877;28;19913;-64
2022/01/24 05:23:30;;;;;;;;;;;;;;;-2.77;100.00;101336.13;4992217;28;20394;-63
2022/01/24 05:25:56;;;;;;;;;;;;;;;-2.77;100.00;101348.56;4992576;28;19921;-64
2022/01/24 05:28:22;;;;;;;;;;;;;;;-2.83;100.00;101346.66;4992628;28;19914;-65
2022/01/24 05:30:47;;;;;;;;;;;;;;;-2.84;100.00;101349.94;4993077;28;19921;-64
2022/01/24 05:33:13;;;;;;;;;;;;;;;-2.74;100.00;101354.56;5011889;28;20003;-65
2022/01/24 05:35:38;;;;;;;;;;;;;;;-2.51;100.00;101352.28;5011985;28;19925;-64
2022/01/24 05:38:03;;;;;;;;;;;;;;;-2.66;100.00;101362.38;5012040;28;19964;-63
2022/01/24 05:40:29;;;;;;;;;;;;;;;-2.68;100.00;101354.00;5012288;28;19914;-63
2022/01/24 05:42:54;;;;;;;;;;;;;;;-2.66;100.00;101355.78;5010665;28;19922;-65
2022/01/24 05:45:20;;;;;;;;;;;;;;;-2.73;100.00;101367.84;5010255;28;19920;-64
2022/01/24 05:47:45;;;;;;;;;;;;;;;-2.68;100.00;101368.94;5010920;28;19917;-64
2022/01/24 05:50:10;;;;;;;;;;;;;;;-2.75;100.00;101370.25;5010696;28;20004;-63
2022/01/24 05:52:35;;;;;;;;;;;;;;;-2.66;100.00;101375.69;5011546;28;19971;-64
2022/01/24 05:55:01;;;;;;;;;;;;;;;-2.56;100.00;101373.63;5011129;28;19913;-64
2022/01/24 05:57:28;;;;;;;;;;;;;;;-2.56;100.00;101381.94;5011611;28;19932;-64
2022/01/24 05:59:53;;;;;;;;;;;;;;;-2.68;100.00;101387.19;5011423;28;19917;-64
2022/01/24 06:02:18;;;;;;;;;;;;;;;-2.50;100.00;101384.72;5025353;28;19917;-63
2022/01/24 06:04:44;;;;;;;;;;;;;;;-2.55;100.00;101380.28;5009703;28;19924;-64
2022/01/24 06:07:09;;;;;;;;;;;;;;;-2.51;100.00;101387.97;5009474;28;19964;-64
2022/01/24 06:09:35;;;;;;;;;;;;;;;-2.53;100.00;101388.69;5010340;28;19913;-63
2022/01/24 06:12:00;;;;;;;;;;;;;;;-2.50;100.00;101392.19;5010101;28;19909;-63
2022/01/24 06:14:25;;;;;;;;;;;;;;;-2.39;100.00;101396.00;5010397;28;19913;-63
2022/01/24 06:16:50;;;;;;;;;;;;;;;-2.24;100.00;101395.88;5011118;28;19963;-63
2022/01/24 06:19:16;;;;;;;;;;;;;;;-2.00;100.00;101407.78;5011307;28;19966;-64
2022/01/24 06:21:44;;;;;;;;;;;;;;;-1.97;100.00;101402.09;5026096;28;19913;-64
2022/01/24 06:24:10;;;;;;;;;;;;;;;-0.96;100.00;101404.03;5026726;28;19914;-65
2022/01/24 06:26:35;;;;;;;;;;;;;;;-1.95;100.00;101418.84;5010182;28;19924;-64
2022/01/24 06:29:00;;;;;;;;;;;;;;;-1.11;100.00;101408.38;5011206;28;19971;-65
2022/01/24 06:31:26;;;;;;;;;;;;;;;-1.80;100.00;101412.03;5011294;28;19913;-65
2022/01/24 06:33:52;;;;;;;;;;;;;;;-2.12;100.00;101412.22;5026523;28;19913;-66
2022/01/24 06:36:17;;;;;;;;;;;;;;;-2.11;100.00;101413.06;5010870;28;20355;-66
2022/01/24 06:38:42;;;;;;;;;;;;;;;-1.77;100.00;101418.81;5011436;28;20379;-65
2022/01/24 06:41:08;;;;;;;;;;;;;;;-1.88;100.00;101409.97;5011284;28;19913;-65
2022/01/24 06:43:33;;;;;;;;;;;;;;;-1.95;100.00;101417.97;5011085;28;19917;-66
2022/01/24 06:46:00;;;;;;;;;;;;;;;-2.03;100.00;101416.78;5011371;28;19920;-66
2022/01/24 06:48:25;;;;;;;;;;;;;;;-1.14;100.00;101423.22;5011303;28;19914;-65
2022/01/24 06:50:51;;;;;;;;;;;;;;;1.22;100.00;101415.50;5009837;28;19924;-66
2022/01/24 06:53:16;;;;;;;;;;;;;;;-0.44;100.00;101412.81;5011276;28;20008;-65
2022/01/24 06:55:42;;;;;;;;;;;;;;;-1.70;100.00;101422.44;5011080;28;20383;-68
2022/01/24 06:58:07;;;;;;;;;;;;;;;0.31;100.00;101421.50;5011143;28;19914;-66
2022/01/24 07:00:32;;;;;;;;;;;;;;;0.18;100.00;101414.34;5011328;28;19913;-66
2022/01/24 07:02:57;;;;;;;;;;;;;;;2.76;87.49;101400.91;5025958;28;19966;-65
2022/01/24 07:05:24;;;;;;;;;;;;;;;2.18;78.29;101407.66;5010820;28;19914;-66
2022/01/24 07:07:49;;;;;;;;;;;;;;;-0.05;87.47;101408.47;5010935;28;19914;-65
2022/01/24 07:10:14;;;;;;;;;;;;;;;1.98;87.47;101399.50;5010800;28;19913;-66
2022/01/24 07:12:40;;;;;;;;;;;;;;;2.00;74.84;101397.06;5009713;28;20388;-65
2022/01/24 07:15:10;;;;;;;;;;;;;;;3.31;72.05;101388.91;5010837;28;19945;-65
2022/01/24 07:20:13;;;;;;;;;;;;;;;2.76;71.81;101393.38;5011146;28;19913;-65
2022/01/24 07:22:38;;;;;;;;;;;;;;;1.86;70.49;101403.34;5010984;28;19920;-65
2022/01/24 07:25:04;;;;;;;;;;;;;;;2.30;72.34;101402.94;5010722;28;19940;-65
2022/01/24 07:27:29;;;;;;;;;;;;;;;0.54;76.43;101423.16;5010787;28;19917;-65
2022/01/24 07:29:54;;;;;;;;;;;;;;;-1.04;95.81;101436.16;5010572;28;19917;-66
2022/01/24 07:32:19;;;;;;;;;;;;;;;-0.81;100.00;101426.28;5010727;28;19921;-65
2022/01/24 07:34:45;;;;;;;;;;;;;;;-0.83;100.00;101435.34;5014460;28;20394;-66
2022/01/24 07:37:10;;;;;;;;;;;;;;;-0.70;100.00;101438.38;5014307;28;19964;-65
2022/01/24 07:39:35;;;;;;;;;;;;;;;-0.57;100.00;101438.06;5014547;28;20307;-65
2022/01/24 07:42:14;;;;;;;;;;;;;;;-0.62;100.00;101434.56;5029535;28;19913;-65
2022/01/24 07:44:39;;;;;;;;;;;;;;;-0.83;100.00;101431.16;5012718;28;19967;-65
2022/01/24 07:47:04;;;;;;;;;;;;;;;-0.94;100.00;101443.22;5013392;28;19917;-65
2022/01/24 07:49:31;;;;;;;;;;;;;;;-1.08;100.00;101436.81;5014220;28;20398;-64
2022/01/24 07:51:56;;;;;;;;;;;;;;;-0.67;100.00;101440.16;5014037;28;20421;-65
2022/01/24 07:54:22;;;;;;;;;;;;;;;-0.93;100.00;101446.56;5014116;28;19956;-66
2022/01/24 07:56:47;;;;;;;;;;;;;;;-0.60;100.00;101437.97;5013972;28;19971;-66
2022/01/24 07:59:13;;;;;;;;;;;;;;;-0.48;100.00;101440.09;5013936;28;19913;-65
2022/01/24 08:01:41;;;;;;;;;;;;;;;-0.86;100.00;101451.03;5013592;28;19913;-65
2022/01/24 08:04:07;;;;;;;;;;;;;;;-0.21;99.44;101444.53;5012485;28;19917;-66
2022/01/24 08:06:32;;;;;;;;;;;;;;;0.27;98.72;101447.16;5013752;28;20008;-66
2022/01/24 08:08:57;;;;;;;;;;;;;;;-0.54;96.50;101449.84;5012475;28;19945;-66
2022/01/24 08:11:23;;;;;;;;;;;;;;;0.06;95.87;101461.38;5013766;28;19909;-65
2022/01/24 08:13:49;;;;;;;;;;;;;;;-0.54;93.06;101465.69;5013508;28;19917;-66
2022/01/24 08:16:15;;;;;;;;;;;;;;;-0.14;92.67;101466.44;5013539;28;19924;-66
2022/01/24 08:18:40;;;;;;;;;;;;;;;-0.38;92.11;101464.66;5012347;28;20000;-65
2022/01/24 08:21:06;;;;;;;;;;;;;;;-0.10;91.70;101462.44;5013519;28;19920;-65
2022/01/24 08:23:31;;;;;;;;;;;;;;;-0.05;91.07;101465.97;5013614;28;20384;-66
2022/01/24 08:25:56;;;;;;;;;;;;;;;-0.09;92.61;101471.63;5013388;28;20465;-65
2022/01/24 08:28:22;;;;;;;;;;;;;;;0.09;92.19;101471.47;5013164;28;19913;-66
2022/01/24 08:30:47;;;;;;;;;;;;;;;0.33;91.15;101483.28;5013547;28;20043;-66
2022/01/24 08:33:12;;;;;;;;;;;;;;;0.09;89.82;101468.97;5013472;28;19910;-66
2022/01/24 08:35:38;;;;;;;;;;;;;;;-0.30;92.02;101476.63;5013381;28;20793;-66
2022/01/24 08:38:04;;;;;;;;;;;;;;;-0.35;91.09;101477.25;5011999;28;20373;-65
2022/01/24 08:40:31;;;;;;;;;;;;;;;0.18;89.35;101482.66;5013208;28;19996;-65
2022/01/24 08:45:44;;;;;;;;;;;;;;;0.18;85.53;101475.16;5011642;28;20004;-67
2022/01/24 08:48:10;;;;;;;;;;;;;;;0.31;86.34;101486.50;5013344;28;19917;-65
2022/01/24 08:50:36;;;;;;;;;;;;;;;0.38;86.82;101485.91;5012753;28;20327;-65
2022/01/24 08:53:03;;;;;;;;;;;;;;;0.21;84.19;101492.81;5012892;28;19913;-64
2022/01/24 08:55:32;;;;;;;;;;;;;;;0.14;83.79;101492.53;5012793;28;20008;-64
2022/01/24 08:57:58;;;;;;;;;;;;;;;0.70;85.71;101490.44;5012898;28;19913;-66
2022/01/24 09:00:24;;;;;;;;;;;;;;;0.92;85.90;101484.56;5013100;28;19964;-65
2022/01/24 09:02:50;;;;;;;;;;;;;;;1.02;82.83;101492.44;5012914;28;19956;-65
2022/01/24 09:05:17;;;;;;;;;;;;;;;0.47;81.65;101487.13;5012739;28;19921;-65
2022/01/24 09:07:42;;;;;;;;;;;;;;;0.59;81.82;101497.59;5012441;28;20308;-65
2022/01/24 09:10:08;;;;;;;;;;;;;;;0.62;82.72;101500.19;5011337;28;19968;-64
2022/01/24 09:12:33;;;;;;;;;;;;;;;0.12;86.71;101494.09;5011208;28;19983;-65
2022/01/24 09:14:59;;;;;;;;;;;;;;;0.04;85.88;101495.47;5012430;28;19917;-65
2022/01/24 09:17:24;;;;;;;;;;;;;;;0.47;87.04;101508.78;5012780;28;20004;-66
2022/01/24 09:19:49;;;;;;;;;;;;;;;0.56;88.02;101501.59;5012696;28;19909;-65
2022/01/24 09:22:15;;;;;;;;;;;;;;;0.99;84.50;101499.84;5011179;28;20311;-65
2022/01/24 09:24:40;;;;;;;;;;;;;;;0.99;81.83;101494.81;5012592;28;19913;-65
2022/01/24 09:27:05;;;;;;;;;;;;;;;1.20;79.91;101489.72;5012022;28;19913;-66
2022/01/24 09:29:30;;;;;;;;;;;;;;;1.16;76.85;101477.88;5012358;28;20008;-66
2022/01/24 09:31:56;;;;;;;;;;;;;;;0.47;75.69;101486.28;5010896;28;19913;-66
2022/01/24 09:34:21;;;;;;;;;;;;;;;0.70;76.69;101487.94;5012470;28;20017;-65
2022/01/24 09:36:47;;;;;;;;;;;;;;;0.84;76.45;101487.66;5012074;28;20367;-65
2022/01/24 09:39:13;;;;;;;;;;;;;;;0.99;76.92;101487.31;5012177;28;20454;-67
2022/01/24 09:41:38;;;;;;;;;;;;;;;1.12;76.51;101486.09;5012124;28;19913;-67
2022/01/24 09:44:04;;;;;;;;;;;;;;;0.92;74.97;101492.91;5012266;28;19921;-66
2022/01/24 09:46:29;;;;;;;;;;;;;;;0.48;75.51;101477.94;5012057;28;19996;-67
2022/01/24 09:48:55;;;;;;;;;;;;;;;0.77;76.52;101487.38;5011971;28;20276;-67
2022/01/24 09:51:21;;;;;;;;;;;;;;;0.78;76.90;101489.06;5011955;28;19920;-66
2022/01/24 09:53:46;;;;;;;;;;;;;;;0.30;79.26;101484.81;5011778;28;19913;-67
2022/01/24 09:56:11;;;;;;;;;;;;;;;0.45;80.14;101475.34;5010095;28;19917;-66
2022/01/24 09:58:37;;;;;;;;;;;;;;;0.24;78.76;101482.06;5011832;28;20392;-66
2022/01/24 10:01:04;;;;;;;;;;;;;;;0.07;79.72;101478.94;5011702;28;19914;-65
2022/01/24 10:03:30;;;;;;;;;;;;;;;0.71;78.54;101474.66;5010247;28;20311;-66
2022/01/24 10:05:56;;;;;;;;;;;;;;;0.38;81.63;101480.91;5011709;28;19921;-66
2022/01/24 10:08:24;;;;;;;;;;;;;;;0.64;81.23;101475.22;5010260;28;20379;-65
2022/01/24 10:10:51;;;;;;;;;;;;;;;0.24;79.56;101464.56;5011231;28;19917;-65
2022/01/24 10:19:10;;;;;;;;;;;;;;;-0.05;83.78;101471.81;5011550;28;19914;-65
2022/01/24 10:21:47;;;;;;;;;;;;;;;0.10;85.12;101473.19;5011603;28;20028;-66
2022/01/24 10:24:28;;;;;;;;;;;;;;;0.64;82.65;101473.56;5010262;28;19979;-67
2022/01/24 10:27:12;;;;;;;;;;;;;;;0.29;83.10;101470.59;5011495;28;19913;-66
2022/01/24 10:29:42;;;;;;;;;;;;;;;0.18;83.82;101472.66;5011026;28;19971;-65
2022/01/24 10:32:07;;;;;;;;;;;;;;;-0.08;85.95;101465.84;5011479;28;19914;-65
2022/01/24 10:34:37;;;;;;;;;;;;;;;0.19;84.72;101468.53;5009884;28;19920;-66
2022/01/24 10:37:03;;;;;;;;;;;;;;;0.57;82.68;101463.31;5011379;28;19913;-65
2022/01/24 10:45:16;;;;;;;;;;;;;;;0.88;75.78;101464.44;5002521;28;19921;-66
2022/01/24 10:47:48;;;;;;;;;;;;;;;0.66;77.03;101459.47;5009888;28;19972;-65
2022/01/24 10:50:21;;;;;;;;;;;;;;;1.27;74.47;101452.41;5011042;28;20303;-66
2022/01/24 10:52:47;;;;;;;;;;;;;;;1.75;71.17;101443.97;5009576;28;19913;-66
2022/01/24 10:55:28;;;;;;;;;;;;;;;1.09;72.59;101454.28;5009873;28;20370;-66
2022/01/24 10:58:09;;;;;;;;;;;;;;;1.81;71.80;101447.44;5011084;28;19944;-66
2022/01/24 11:00:36;;;;;;;;;;;;;;;1.25;71.80;101446.50;5010847;28;20387;-65
2022/01/24 11:03:06;;;;;;;;;;;;;;;1.09;71.98;101455.97;5010718;28;20339;-67
2022/01/24 11:05:36;;;;;;;;;;;;;;;1.03;72.06;101455.75;5010771;28;19917;-66
2022/01/24 11:08:03;;;;;;;;;;;;;;;1.22;70.15;101450.56;5012346;28;19917;-66
2022/01/24 11:10:30;;;;;;;;;;;;;;;1.05;68.94;101456.66;5015053;28;19914;-65
2022/01/24 11:12:55;;;;;;;;;;;;;;;0.97;69.07;101461.38;5013542;28;19935;-66
2022/01/24 11:15:21;;;;;;;;;;;;;;;0.97;69.56;101463.06;5014712;28;20458;-66
2022/01/24 11:17:47;;;;;;;;;;;;;;;1.38;70.92;101465.28;5014911;28;19971;-66
2022/01/24 11:20:16;;;;;;;;;;;;;;;1.39;70.76;101462.81;5014799;28;19920;-66
2022/01/24 11:22:45;;;;;;;;;;;;;;;1.17;71.17;101472.94;5014784;28;20000;-66
2022/01/24 11:25:10;;;;;;;;;;;;;;;1.26;71.86;101474.91;5014626;28;19920;-66
2022/01/24 11:27:41;;;;;;;;;;;;;;;0.92;72.14;101475.41;5012843;28;19917;-66
2022/01/24 11:30:12;;;;;;;;;;;;;;;1.00;73.03;101484.03;5014246;28;19914;-66
2022/01/24 11:32:38;;;;;;;;;;;;;;;1.45;70.04;101480.56;5014638;28;19967;-66
2022/01/24 11:35:04;;;;;;;;;;;;;;;1.13;71.37;101477.81;5014485;28;19913;-66
2022/01/24 11:37:38;;;;;;;;;;;;;;;1.12;72.52;101481.09;5013431;28;20330;-65
2022/01/24 11:40:08;;;;;;;;;;;;;;;1.02;73.12;101489.09;5013145;28;20268;-66
2022/01/24 11:42:36;;;;;;;;;;;;;;;0.99;72.22;101489.00;5014102;28;19914;-66
2022/01/24 11:45:09;;;;;;;;;;;;;;;0.68;73.54;101489.53;5014593;28;19909;-65
2022/01/24 11:47:35;;;;;;;;;;;;;;;1.60;70.23;101497.75;5014271;28;19963;-66
2022/01/24 11:50:20;;;;;;;;;;;;;;;1.47;68.23;101496.50;5014208;28;19917;-65
2022/01/24 11:52:45;;;;;;;;;;;;;;;1.38;67.80;101496.22;5013893;28;19941;-65
2022/01/24 11:55:30;;;;;;;;;;;;;;;2.01;66.25;101482.38;5013846;28;19960;-65
2022/01/24 11:58:00;;;;;;;;;;;;;;;1.01;67.92;101482.38;5014069;28;19921;-65
2022/01/24 12:00:27;;;;;;;;;;;;;;;0.99;70.15;101489.81;5014075;28;19924;-66
2022/01/24 12:02:57;;;;;;;;;;;;;;;0.79;70.30;101490.78;5013756;28;19917;-66
2022/01/24 12:05:24;;;;;;;;;;;;;;;1.17;71.09;101492.13;5013820;28;19913;-66
2022/01/24 12:07:51;;;;;;;;;;;;;;;1.40;71.42;101502.13;5013595;28;19917;-65
2022/01/24 12:10:26;;;;;;;;;;;;;;;1.27;72.21;101494.97;5013724;28;19913;-65
2022/01/24 12:12:55;;;;;;;;;;;;;;;0.70;74.98;101495.44;5013864;28;19913;-65
2022/01/24 12:15:44;;;;;;;;;;;;;;;0.26;78.44;101480.47;5013527;28;20300;-65
2022/01/24 12:18:10;;;;;;;;;;;;;;;0.47;79.90;101482.13;5008245;28;19913;-65
2022/01/24 12:20:35;;;;;;;;;;;;;;;0.30;83.95;101488.13;5013582;28;20007;-66
2022/01/24 12:23:16;;;;;;;;;;;;;;;0.32;83.26;101490.72;5013606;28;20008;-65
2022/01/24 12:25:54;;;;;;;;;;;;;;;0.84;82.54;101491.78;5013517;28;19920;-66
2022/01/24 12:28:20;;;;;;;;;;;;;;;1.10;80.88;101488.56;5013600;28;19959;-67
2022/01/24 12:31:01;;;;;;;;;;;;;;;1.49;77.39;101491.53;5013128;28;19975;-65
2022/01/24 12:33:30;;;;;;;;;;;;;;;1.34;78.02;101494.41;5013421;28;19960;-65
2022/01/24 12:35:55;;;;;;;;;;;;;;;1.58;73.51;101481.81;5013164;28;19917;-64
2022/01/24 12:38:21;;;;;;;;;;;;;;;1.12;72.75;101486.09;5013210;28;20375;-65
2022/01/24 12:40:47;;;;;;;;;;;;;;;1.62;72.14;101486.97;5013192;28;20355;-65
2022/01/24 12:43:19;;;;;;;;;;;;;;;1.73;72.86;101488.19;5012799;28;19917;-64
2022/01/24 12:48:29;;;;;;;;;;;;;;;1.45;75.06;101507.25;5012849;28;20020;-66
2022/01/24 12:50:55;;;;;;;;;;;;;;;2.10;73.74;101499.34;5013357;28;20395;-66
2022/01/24 12:53:21;;;;;;;;;;;;;;;1.24;72.11;101506.56;5013111;28;19944;-66
2022/01/24 12:55:55;;;;;;;;;;;;;;;1.04;73.12;101515.88;5012563;28;19913;-65
2022/01/24 12:58:29;;;;;;;;;;;;;;;1.01;74.05;101508.25;5011650;28;20367;-66
2022/01/24 13:00:55;;;;;;;;;;;;;;;1.02;74.30;101517.47;5012780;28;20479;-65
2022/01/24 13:03:20;;;;;;;;;;;;;;;0.60;72.67;101518.44;5012694;28;19959;-65
2022/01/24 13:05:45;;;;;;;;;;;;;;;0.62;73.89;101516.84;5012647;28;19967;-66
2022/01/24 13:08:14;;;;;;;;;;;;;;;1.22;73.83;101518.16;5012358;28;19971;-65
2022/01/24 13:10:40;;;;;;;;;;;;;;;1.10;72.73;101513.59;5013206;28;19920;-66
2022/01/24 13:13:07;;;;;;;;;;;;;;;0.89;74.51;101518.69;5012851;28;19914;-65
2022/01/24 13:23:33;;;;;;;;;;;;;;;1.63;71.91;101518.75;5012365;28;19913;-66
2022/01/24 13:25:58;;;;;;;;;;;;;;;0.68;75.01;101527.94;5012413;28;20331;-65
2022/01/24 13:28:24;;;;;;;;;;;;;;;0.95;75.26;101523.09;5012597;28;20004;-65
2022/01/24 13:30:59;;;;;;;;;;;;;;;0.65;75.96;101532.81;5011783;28;19909;-65
2022/01/24 13:33:25;;;;;;;;;;;;;;;0.51;78.88;101538.13;5012142;28;19918;-65
2022/01/24 13:35:55;;;;;;;;;;;;;;;0.69;78.46;101529.63;5012410;28;19992;-65
2022/01/24 13:38:22;;;;;;;;;;;;;;;0.36;81.03;101527.50;5011995;28;20311;-66
2022/01/24 13:40:53;;;;;;;;;;;;;;;0.40;82.17;101526.84;5010839;28;20387;-66
2022/01/24 13:43:37;;;;;;;;;;;;;;;0.45;82.48;101517.88;5011979;28;19932;-66
2022/01/24 13:46:04;;;;;;;;;;;;;;;0.12;85.02;101524.94;5010694;28;19924;-66
2022/01/24 13:48:36;;;;;;;;;;;;;;;0.08;86.02;101529.78;5012101;28;19966;-67
2022/01/24 13:51:01;;;;;;;;;;;;;;;-0.27;88.27;101525.88;5011866;28;20004;-67
2022/01/24 13:53:31;;;;;;;;;;;;;;;-0.29;89.28;101528.31;5011883;28;20526;-66
2022/01/24 13:55:56;;;;;;;;;;;;;;;-0.34;91.29;101531.41;5011574;28;19971;-67
2022/01/24 13:58:27;;;;;;;;;;;;;;;-0.51;89.97;101532.34;5010304;28;20300;-66
2022/01/24 14:00:59;;;;;;;;;;;;;;;-0.46;91.43;101528.41;5012045;28;19914;-67
2022/01/24 14:03:25;;;;;;;;;;;;;;;-0.38;90.80;101534.56;5011871;28;19925;-66
2022/01/24 14:06:09;;;;;;;;;;;;;;;-0.40;91.51;101534.53;5011658;28;19920;-67
2022/01/24 14:08:34;;;;;;;;;;;;;;;-0.40;90.87;101537.03;5011328;28;20301;-67
2022/01/24 14:11:09;;;;;;;;;;;;;;;-0.58;91.44;101536.25;5011835;28;19914;-67
2022/01/24 14:13:34;;;;;;;;;;;;;;;-0.47;91.47;101536.69;5011545;28;20403;-67
2022/01/24 14:16:07;;;;;;;;;;;;;;;-0.68;92.16;101538.28;5011873;28;19964;-67
2022/01/24 14:18:33;;;;;;;;;;;;;;;-0.48;92.61;101537.47;5011551;28;19914;-67
2022/01/24 14:21:09;;;;;;;;;;;;;;;-0.58;93.39;101531.25;5011570;28;19924;-68
2022/01/24 14:23:36;;;;;;;;;;;;;;;-0.47;93.81;101545.03;5011586;28;19921;-67
2022/01/24 14:26:14;;;;;;;;;;;;;;;-0.54;93.51;101542.22;5010045;28;19984;-67
2022/01/24 14:28:40;;;;;;;;;;;;;;;-0.75;93.60;101547.16;5011768;28;19913;-66
2022/01/24 14:31:11;;;;;;;;;;;;;;;-0.83;92.92;101548.47;5011467;28;20274;-66
2022/01/24 14:33:36;;;;;;;;;;;;;;;-0.65;93.15;101551.75;5009769;28;19917;-65
2022/01/24 14:36:01;;;;;;;;;;;;;;;-0.73;90.79;101565.53;5011586;28;19972;-65
2022/01/24 14:38:27;;;;;;;;;;;;;;;-0.54;89.31;101558.06;5011270;28;19913;-66
2022/01/24 14:40:54;;;;;;;;;;;;;;;-0.79;89.19;101567.78;5009973;28;19913;-66
2022/01/24 14:46:08;;;;;;;;;;;;;;;-0.73;89.44;101567.22;4999671;28;19917;-67
2022/01/24 14:48:43;;;;;;;;;;;;;;;-0.91;89.96;101573.09;5011154;28;20236;-67
2022/01/24 14:51:08;;;;;;;;;;;;;;;-0.68;90.23;101586.59;5009755;28;20373;-67
2022/01/24 14:53:34;;;;;;;;;;;;;;;-0.54;89.64;101569.69;5011362;28;19913;-66
2022/01/24 14:56:00;;;;;;;;;;;;;;;-1.06;92.22;101576.56;5011119;28;20304;-66
2022/01/24 14:58:25;;;;;;;;;;;;;;;-0.83;93.48;101570.94;5011220;28;19913;-66